sensor_id;sensor_type;location;lat;lon;timestamp;temperature;humidity
26952;DHT22;14507;52.418;13.398;2022-12-11T00:01:11;-0.10;99.90
26952;DHT22;14507;52.418;13.398;2022-12-11T00:03:38;0.00;99.90
26952;DHT22;14507;52.418;13.398;2022-12-11T00:06:09;0.00;99.90
26952;DHT22;14507;52.418;13.398;2022-12-11T00:08:35;-0.10;99.90
26952;DHT22;14507;52.418;13.398;2022-12-11T00:11:02;0.20;99.90
26952;DHT22;14507;52.418;13.398;2022-12-11T00:13:28;-0.10;99.90
26952;DHT22;14507;52.418;13.398;2022-12-11T00:15:53;-0.10;99.90
26952;DHT22;14507;52.418;13.398;2022-12-11T00:18:19;-0.10;99.90
26952;DHT22;14507;52.418;13.398;2022-12-11T00:20:45;-0.10;99.90
26952;DHT22;14507;52.418;13.398;2022-12-11T00:23:10;-0.10;99.90
26952;DHT22;14507;52.418;13.398;2022-12-11T00:25:44;-0.10;99.90
26952;DHT22;14507;52.418;13.398;2022-12-11T00:28:12;0.10;99.90
26952;DHT22;14507;52.418;13.398;2022-12-11T00:30:40;0.30;99.90
26952;DHT22;14507;52.418;13.398;2022-12-11T00:33:06;0.00;99.90
26952;DHT22;14507;52.418;13.398;2022-12-11T00:35:32;0.00;99.90
26952;DHT22;14507;52.418;13.398;2022-12-11T00:37:58;-0.10;99.90
26952;DHT22;14507;52.418;13.398;2022-12-11T00:40:23;-0.10;99.90
26952;DHT22;14507;52.418;13.398;2022-12-11T00:42:49;-0.10;99.90
26952;DHT22;14507;52.418;13.398;2022-12-11T00:45:15;-0.20;99.90
26952;DHT22;14507;52.418;13.398;2022-12-11T00:47:40;-0.20;99.90
26952;DHT22;14507;52.418;13.398;2022-12-11T00:50:06;-0.10;99.90
26952;DHT22;14507;52.418;13.398;2022-12-11T00:52:32;-0.10;99.90
26952;DHT22;14507;52.418;13.398;2022-12-11T00:55:02;0.20;99.90
26952;DHT22;14507;52.418;13.398;2022-12-11T00:57:28;-0.20;99.90
26952;DHT22;14507;52.418;13.398;2022-12-11T00:59:53;-0.30;99.90
26952;DHT22;14507;52.418;13.398;2022-12-11T01:02:19;-0.30;99.90
26952;DHT22;14507;52.418;13.398;2022-12-11T01:04:48;-0.10;99.90
26952;DHT22;14507;52.418;13.398;2022-12-11T01:07:13;-0.20;99.90
26952;DHT22;14507;52.418;13.398;2022-12-11T01:09:39;-0.20;99.90
26952;DHT22;14507;52.418;13.398;2022-12-11T01:12:23;0.50;99.90
26952;DHT22;14507;52.418;13.398;2022-12-11T01:14:50;-0.20;99.90
26952;DHT22;14507;52.418;13.398;2022-12-11T01:17:15;-0.20;99.90
26952;DHT22;14507;52.418;13.398;2022-12-11T01:19:41;-0.10;99.90
26952;DHT22;14507;52.418;13.398;2022-12-11T01:22:06;-0.20;99.90
26952;DHT22;14507;52.418;13.398;2022-12-11T01:24:35;-0.20;99.90
26952;DHT22;14507;52.418;13.398;2022-12-11T01:27:02;-0.20;99.90
26952;DHT22;14507;52.418;13.398;2022-12-11T01:29:28;-0.20;99.90
26952;DHT22;14507;52.418;13.398;2022-12-11T01:31:54;-0.20;99.90
26952;DHT22;14507;52.418;13.398;2022-12-11T01:34:19;-0.20;99.90
26952;DHT22;14507;52.418;13.398;2022-12-11T01:36:45;-0.20;99.90
26952;DHT22;14507;52.418;13.398;2022-12-11T01:39:11;-0.20;99.90
26952;DHT22;14507;52.418;13.398;2022-12-11T01:41:36;-0.20;99.90
26952;DHT22;14507;52.418;13.398;2022-12-11T01:45:11;-0.20;99.90
26952;DHT22;14507;52.418;13.398;2022-12-11T01:46:53;-0.20;99.90
26952;DHT22;14507;52.418;13.398;2022-12-11T01:49:22;-0.10;99.90
26952;DHT22;14507;52.418;13.398;2022-12-11T01:51:52;-0.20;99.90
26952;DHT22;14507;52.418;13.398;2022-12-11T01:54:21;-0.10;99.90
26952;DHT22;14507;52.418;13.398;2022-12-11T01:56:49;-0.20;99.90
26952;DHT22;14507;52.418;13.398;2022-12-11T01:59:19;-0.10;99.90
26952;DHT22;14507;52.418;13.398;2022-12-11T02:01:59;-0.10;99.90
26952;DHT22;14507;52.418;13.398;2022-12-11T02:04:27;-0.20;99.90
26952;DHT22;14507;52.418;13.398;2022-12-11T02:06:53;-0.10;99.90
26952;DHT22;14507;52.418;13.398;2022-12-11T02:09:29;-0.10;99.90
26952;DHT22;14507;52.418;13.398;2022-12-11T02:15:08;-0.20;99.90
26952;DHT22;14507;52.418;13.398;2022-12-11T02:28:55;-0.20;99.90
26952;DHT22;14507;52.418;13.398;2022-12-11T02:34:28;-0.30;99.90
26952;DHT22;14507;52.418;13.398;2022-12-11T02:36:59;-0.20;99.90
26952;DHT22;14507;52.418;13.398;2022-12-11T02:39:27;-0.20;99.90
26952;DHT22;14507;52.418;13.398;2022-12-11T02:41:53;-0.30;99.90
26952;DHT22;14507;52.418;13.398;2022-12-11T02:44:26;-0.30;99.90
26952;DHT22;14507;52.418;13.398;2022-12-11T02:46:53;-0.30;99.90
26952;DHT22;14507;52.418;13.398;2022-12-11T02:49:20;-0.30;99.90
26952;DHT22;14507;52.418;13.398;2022-12-11T02:51:48;-0.20;99.90
26952;DHT22;14507;52.418;13.398;2022-12-11T02:54:27;-0.20;99.90
26952;DHT22;14507;52.418;13.398;2022-12-11T02:59:49;-0.30;99.90
26952;DHT22;14507;52.418;13.398;2022-12-11T03:02:15;-0.30;99.90
26952;DHT22;14507;52.418;13.398;2022-12-11T03:04:43;-0.30;99.90
26952;DHT22;14507;52.418;13.398;2022-12-11T03:07:14;-0.30;99.90
26952;DHT22;14507;52.418;13.398;2022-12-11T03:09:44;-0.40;99.90
26952;DHT22;14507;52.418;13.398;2022-12-11T03:12:13;-0.30;99.90
26952;DHT22;14507;52.418;13.398;2022-12-11T03:14:40;-0.30;99.90
26952;DHT22;14507;52.418;13.398;2022-12-11T03:17:09;-0.30;99.90
26952;DHT22;14507;52.418;13.398;2022-12-11T03:19:40;-0.30;99.90
26952;DHT22;14507;52.418;13.398;2022-12-11T03:22:16;-0.30;99.90
26952;DHT22;14507;52.418;13.398;2022-12-11T03:27:41;0.30;99.90
26952;DHT22;14507;52.418;13.398;2022-12-11T03:30:13;-0.30;99.90
26952;DHT22;14507;52.418;13.398;2022-12-11T03:35:17;-0.30;99.90
26952;DHT22;14507;52.418;13.398;2022-12-11T03:37:47;-0.30;99.90
26952;DHT22;14507;52.418;13.398;2022-12-11T03:40:16;-0.30;99.90
26952;DHT22;14507;52.418;13.398;2022-12-11T03:42:46;-0.20;99.90
26952;DHT22;14507;52.418;13.398;2022-12-11T03:45:14;-0.30;99.90
26952;DHT22;14507;52.418;13.398;2022-12-11T03:47:42;0.10;99.90
26952;DHT22;14507;52.418;13.398;2022-12-11T03:50:11;-0.30;99.90
26952;DHT22;14507;52.418;13.398;2022-12-11T03:52:40;-0.20;99.90
26952;DHT22;14507;52.418;13.398;2022-12-11T03:55:08;-0.20;99.90
26952;DHT22;14507;52.418;13.398;2022-12-11T03:57:36;-0.30;99.90
26952;DHT22;14507;52.418;13.398;2022-12-11T04:00:06;-0.20;99.90
26952;DHT22;14507;52.418;13.398;2022-12-11T04:02:32;-0.20;99.90
26952;DHT22;14507;52.418;13.398;2022-12-11T04:04:57;-0.20;99.90
26952;DHT22;14507;52.418;13.398;2022-12-11T04:07:23;-0.30;99.90
26952;DHT22;14507;52.418;13.398;2022-12-11T04:09:49;-0.30;99.90
26952;DHT22;14507;52.418;13.398;2022-12-11T04:12:14;0.20;99.90
26952;DHT22;14507;52.418;13.398;2022-12-11T04:14:43;-0.20;99.90
26952;DHT22;14507;52.418;13.398;2022-12-11T04:17:33;-0.30;99.90
26952;DHT22;14507;52.418;13.398;2022-12-11T04:20:18;-0.30;99.90
26952;DHT22;14507;52.418;13.398;2022-12-11T04:23:08;-0.30;99.90
26952;DHT22;14507;52.418;13.398;2022-12-11T04:26:09;-0.30;99.90
26952;DHT22;14507;52.418;13.398;2022-12-11T04:28:36;-0.30;99.90
26952;DHT22;14507;52.418;13.398;2022-12-11T04:31:05;-0.30;99.90
26952;DHT22;14507;52.418;13.398;2022-12-11T04:33:31;-0.20;99.90
26952;DHT22;14507;52.418;13.398;2022-12-11T04:35:57;-0.30;99.90
26952;DHT22;14507;52.418;13.398;2022-12-11T04:38:24;-0.30;99.90
26952;DHT22;14507;52.418;13.398;2022-12-11T04:40:56;-0.30;99.90
26952;DHT22;14507;52.418;13.398;2022-12-11T04:43:22;-0.30;99.90
26952;DHT22;14507;52.418;13.398;2022-12-11T04:45:48;-0.30;99.90
26952;DHT22;14507;52.418;13.398;2022-12-11T04:48:13;-0.30;99.90
26952;DHT22;14507;52.418;13.398;2022-12-11T04:50:39;-0.30;99.90
26952;DHT22;14507;52.418;13.398;2022-12-11T04:53:05;0.20;99.90
26952;DHT22;14507;52.418;13.398;2022-12-11T04:55:30;-0.30;99.90
26952;DHT22;14507;52.418;13.398;2022-12-11T04:57:56;-0.30;99.90
26952;DHT22;14507;52.418;13.398;2022-12-11T05:00:22;-0.30;99.90
26952;DHT22;14507;52.418;13.398;2022-12-11T05:02:47;-0.30;99.90
26952;DHT22;14507;52.418;13.398;2022-12-11T05:05:13;-0.30;99.90
26952;DHT22;14507;52.418;13.398;2022-12-11T05:07:39;-0.30;99.90
26952;DHT22;14507;52.418;13.398;2022-12-11T05:10:06;-0.30;99.90
26952;DHT22;14507;52.418;13.398;2022-12-11T05:12:32;-0.30;99.90
26952;DHT22;14507;52.418;13.398;2022-12-11T05:14:57;-0.40;99.90
26952;DHT22;14507;52.418;13.398;2022-12-11T05:17:23;-0.30;99.90
26952;DHT22;14507;52.418;13.398;2022-12-11T05:19:50;-0.30;99.90
26952;DHT22;14507;52.418;13.398;2022-12-11T05:22:16;-0.30;99.90
26952;DHT22;14507;52.418;13.398;2022-12-11T05:24:42;-0.30;99.90
26952;DHT22;14507;52.418;13.398;2022-12-11T05:27:08;-0.30;99.90
26952;DHT22;14507;52.418;13.398;2022-12-11T05:29:34;-0.40;99.90
26952;DHT22;14507;52.418;13.398;2022-12-11T05:32:00;-0.40;99.90
26952;DHT22;14507;52.418;13.398;2022-12-11T05:34:26;-0.30;99.90
26952;DHT22;14507;52.418;13.398;2022-12-11T05:36:51;0.10;99.90
26952;DHT22;14507;52.418;13.398;2022-12-11T05:39:17;-0.30;99.90
26952;DHT22;14507;52.418;13.398;2022-12-11T05:41:43;-0.30;99.90
26952;DHT22;14507;52.418;13.398;2022-12-11T05:44:12;-0.30;99.90
26952;DHT22;14507;52.418;13.398;2022-12-11T05:46:38;-0.30;99.90
26952;DHT22;14507;52.418;13.398;2022-12-11T05:49:05;-0.30;99.90
26952;DHT22;14507;52.418;13.398;2022-12-11T05:51:31;-0.30;99.90
26952;DHT22;14507;52.418;13.398;2022-12-11T05:53:59;-0.30;99.90
26952;DHT22;14507;52.418;13.398;2022-12-11T05:56:30;-0.30;99.90
26952;DHT22;14507;52.418;13.398;2022-12-11T05:58:57;-0.40;99.90
26952;DHT22;14507;52.418;13.398;2022-12-11T06:01:45;-0.30;99.90
26952;DHT22;14507;52.418;13.398;2022-12-11T06:04:11;0.50;99.90
26952;DHT22;14507;52.418;13.398;2022-12-11T06:06:38;-0.30;99.90
26952;DHT22;14507;52.418;13.398;2022-12-11T06:09:05;-0.30;99.90
26952;DHT22;14507;52.418;13.398;2022-12-11T06:11:32;-0.30;99.90
26952;DHT22;14507;52.418;13.398;2022-12-11T06:14:00;-0.30;99.90
26952;DHT22;14507;52.418;13.398;2022-12-11T06:16:26;-0.30;99.90
26952;DHT22;14507;52.418;13.398;2022-12-11T06:18:52;-0.30;99.90
26952;DHT22;14507;52.418;13.398;2022-12-11T06:21:24;-0.20;99.90
26952;DHT22;14507;52.418;13.398;2022-12-11T06:23:52;-0.20;99.90
26952;DHT22;14507;52.418;13.398;2022-12-11T06:26:19;-0.30;99.90
26952;DHT22;14507;52.418;13.398;2022-12-11T06:28:46;-0.20;99.90
26952;DHT22;14507;52.418;13.398;2022-12-11T06:31:12;-0.30;99.90
26952;DHT22;14507;52.418;13.398;2022-12-11T06:33:38;-0.30;99.90
26952;DHT22;14507;52.418;13.398;2022-12-11T06:36:06;-0.30;99.90
26952;DHT22;14507;52.418;13.398;2022-12-11T06:38:32;-0.30;99.90
26952;DHT22;14507;52.418;13.398;2022-12-11T06:40:59;-0.30;99.90
26952;DHT22;14507;52.418;13.398;2022-12-11T06:43:25;-0.30;99.90
26952;DHT22;14507;52.418;13.398;2022-12-11T06:45:51;-0.30;99.90
26952;DHT22;14507;52.418;13.398;2022-12-11T06:48:18;-0.30;99.90
26952;DHT22;14507;52.418;13.398;2022-12-11T06:50:44;-0.30;99.90
26952;DHT22;14507;52.418;13.398;2022-12-11T06:53:11;-0.30;99.90
26952;DHT22;14507;52.418;13.398;2022-12-11T06:55:37;-0.30;99.90
26952;DHT22;14507;52.418;13.398;2022-12-11T06:58:03;-0.30;99.90
26952;DHT22;14507;52.418;13.398;2022-12-11T07:00:29;-0.30;99.90
26952;DHT22;14507;52.418;13.398;2022-12-11T07:02:54;-0.20;99.90
26952;DHT22;14507;52.418;13.398;2022-12-11T07:05:20;-0.30;99.90
26952;DHT22;14507;52.418;13.398;2022-12-11T07:07:46;-0.30;99.90
26952;DHT22;14507;52.418;13.398;2022-12-11T07:10:11;-0.30;99.90
26952;DHT22;14507;52.418;13.398;2022-12-11T07:12:37;-0.30;99.90
26952;DHT22;14507;52.418;13.398;2022-12-11T07:15:04;-0.10;99.90
26952;DHT22;14507;52.418;13.398;2022-12-11T07:17:30;-0.40;99.90
26952;DHT22;14507;52.418;13.398;2022-12-11T07:19:56;-0.40;99.90
26952;DHT22;14507;52.418;13.398;2022-12-11T07:22:21;-0.40;99.90
26952;DHT22;14507;52.418;13.398;2022-12-11T07:24:47;-0.50;99.90
26952;DHT22;14507;52.418;13.398;2022-12-11T07:27:13;-0.50;99.90
26952;DHT22;14507;52.418;13.398;2022-12-11T07:29:38;-0.50;99.90
26952;DHT22;14507;52.418;13.398;2022-12-11T07:32:04;-0.50;99.90
26952;DHT22;14507;52.418;13.398;2022-12-11T07:34:30;-0.50;99.90
26952;DHT22;14507;52.418;13.398;2022-12-11T07:36:56;-0.50;99.90
26952;DHT22;14507;52.418;13.398;2022-12-11T07:39:22;-0.50;99.90
26952;DHT22;14507;52.418;13.398;2022-12-11T07:41:48;-0.50;99.90
26952;DHT22;14507;52.418;13.398;2022-12-11T07:44:14;-0.50;99.90
26952;DHT22;14507;52.418;13.398;2022-12-11T07:46:39;-0.50;99.90
26952;DHT22;14507;52.418;13.398;2022-12-11T07:49:06;0.30;99.90
26952;DHT22;14507;52.418;13.398;2022-12-11T07:51:34;-0.60;99.90
26952;DHT22;14507;52.418;13.398;2022-12-11T07:54:06;-0.60;99.90
26952;DHT22;14507;52.418;13.398;2022-12-11T07:56:32;-0.60;99.90
26952;DHT22;14507;52.418;13.398;2022-12-11T07:59:00;-0.70;99.90
26952;DHT22;14507;52.418;13.398;2022-12-11T08:01:27;-0.70;99.90
26952;DHT22;14507;52.418;13.398;2022-12-11T08:03:54;-0.70;99.90
26952;DHT22;14507;52.418;13.398;2022-12-11T08:06:25;-0.70;99.90
26952;DHT22;14507;52.418;13.398;2022-12-11T08:08:53;0.00;99.90
26952;DHT22;14507;52.418;13.398;2022-12-11T08:11:18;-0.70;99.90
26952;DHT22;14507;52.418;13.398;2022-12-11T08:13:44;-0.70;99.90
26952;DHT22;14507;52.418;13.398;2022-12-11T08:16:12;-0.60;99.90
26952;DHT22;14507;52.418;13.398;2022-12-11T08:18:39;-0.70;99.90
26952;DHT22;14507;52.418;13.398;2022-12-11T08:21:19;-0.60;99.90
26952;DHT22;14507;52.418;13.398;2022-12-11T08:23:45;-0.60;99.90
26952;DHT22;14507;52.418;13.398;2022-12-11T08:26:16;-0.60;99.90
26952;DHT22;14507;52.418;13.398;2022-12-11T08:28:42;-0.60;99.90
26952;DHT22;14507;52.418;13.398;2022-12-11T08:31:09;-0.60;99.90
26952;DHT22;14507;52.418;13.398;2022-12-11T08:33:36;-0.60;99.90
26952;DHT22;14507;52.418;13.398;2022-12-11T08:36:06;-0.70;99.90
26952;DHT22;14507;52.418;13.398;2022-12-11T08:38:33;-0.60;99.90
26952;DHT22;14507;52.418;13.398;2022-12-11T08:41:06;-0.70;99.90
26952;DHT22;14507;52.418;13.398;2022-12-11T08:43:32;-0.80;99.90
26952;DHT22;14507;52.418;13.398;2022-12-11T08:45:58;-0.70;99.90
26952;DHT22;14507;52.418;13.398;2022-12-11T08:48:24;-0.70;99.90
26952;DHT22;14507;52.418;13.398;2022-12-11T08:50:49;-0.60;99.90
26952;DHT22;14507;52.418;13.398;2022-12-11T08:53:15;-0.60;99.90
26952;DHT22;14507;52.418;13.398;2022-12-11T08:55:41;-0.60;99.90
26952;DHT22;14507;52.418;13.398;2022-12-11T08:58:06;-0.60;99.90
26952;DHT22;14507;52.418;13.398;2022-12-11T09:00:32;-0.50;99.90
26952;DHT22;14507;52.418;13.398;2022-12-11T09:02:58;-0.50;99.90
26952;DHT22;14507;52.418;13.398;2022-12-11T09:05:24;-0.50;99.90
26952;DHT22;14507;52.418;13.398;2022-12-11T09:07:50;-0.50;99.90
26952;DHT22;14507;52.418;13.398;2022-12-11T09:10:16;-0.50;99.90
26952;DHT22;14507;52.418;13.398;2022-12-11T09:12:42;-0.50;99.90
26952;DHT22;14507;52.418;13.398;2022-12-11T09:15:08;-0.50;99.90
26952;DHT22;14507;52.418;13.398;2022-12-11T09:17:34;-0.40;99.90
26952;DHT22;14507;52.418;13.398;2022-12-11T09:20:00;-0.40;99.90
26952;DHT22;14507;52.418;13.398;2022-12-11T09:22:26;-0.40;99.90
26952;DHT22;14507;52.418;13.398;2022-12-11T09:24:51;-0.50;99.90
26952;DHT22;14507;52.418;13.398;2022-12-11T09:27:17;-0.50;99.90
26952;DHT22;14507;52.418;13.398;2022-12-11T09:29:45;-0.40;99.90
26952;DHT22;14507;52.418;13.398;2022-12-11T09:32:11;-0.40;99.90
26952;DHT22;14507;52.418;13.398;2022-12-11T09:34:36;-0.40;99.90
26952;DHT22;14507;52.418;13.398;2022-12-11T09:37:02;-0.40;99.90
26952;DHT22;14507;52.418;13.398;2022-12-11T09:39:28;-0.30;99.90
26952;DHT22;14507;52.418;13.398;2022-12-11T09:42:14;-0.40;99.90
26952;DHT22;14507;52.418;13.398;2022-12-11T09:47:32;-0.30;99.90
26952;DHT22;14507;52.418;13.398;2022-12-11T09:52:35;-0.30;99.90
26952;DHT22;14507;52.418;13.398;2022-12-11T09:55:09;-0.40;99.90
26952;DHT22;14507;52.418;13.398;2022-12-11T09:57:59;-0.30;99.90
26952;DHT22;14507;52.418;13.398;2022-12-11T10:00:31;-0.30;99.90
26952;DHT22;14507;52.418;13.398;2022-12-11T10:06:20;-0.30;99.90
26952;DHT22;14507;52.418;13.398;2022-12-11T10:09:29;-0.20;99.90
26952;DHT22;14507;52.418;13.398;2022-12-11T10:12:42;-0.20;99.90
26952;DHT22;14507;52.418;13.398;2022-12-11T10:15:25;-0.20;99.90
26952;DHT22;14507;52.418;13.398;2022-12-11T10:17:54;-0.20;99.90
26952;DHT22;14507;52.418;13.398;2022-12-11T10:20:25;-0.10;99.90
26952;DHT22;14507;52.418;13.398;2022-12-11T10:22:53;-0.20;99.90
26952;DHT22;14507;52.418;13.398;2022-12-11T10:25:26;-0.10;99.90
26952;DHT22;14507;52.418;13.398;2022-12-11T10:27:52;-0.10;99.90
26952;DHT22;14507;52.418;13.398;2022-12-11T10:30:23;-0.20;99.90
26952;DHT22;14507;52.418;13.398;2022-12-11T10:32:53;-0.10;99.90
26952;DHT22;14507;52.418;13.398;2022-12-11T10:35:35;-0.10;99.90
26952;DHT22;14507;52.418;13.398;2022-12-11T10:38:14;-0.10;99.90
26952;DHT22;14507;52.418;13.398;2022-12-11T10:40:46;0.00;99.90
26952;DHT22;14507;52.418;13.398;2022-12-11T10:43:12;0.00;99.90
26952;DHT22;14507;52.418;13.398;2022-12-11T10:45:38;0.00;99.90
26952;DHT22;14507;52.418;13.398;2022-12-11T10:48:05;0.00;99.90
26952;DHT22;14507;52.418;13.398;2022-12-11T10:50:33;0.00;99.90
26952;DHT22;14507;52.418;13.398;2022-12-11T10:52:59;-0.10;99.90
26952;DHT22;14507;52.418;13.398;2022-12-11T10:55:44;0.00;99.90
26952;DHT22;14507;52.418;13.398;2022-12-11T10:58:17;-0.10;99.90
26952;DHT22;14507;52.418;13.398;2022-12-11T11:00:44;0.00;99.90
26952;DHT22;14507;52.418;13.398;2022-12-11T11:03:24;0.00;99.90
26952;DHT22;14507;52.418;13.398;2022-12-11T11:06:02;0.00;99.90
26952;DHT22;14507;52.418;13.398;2022-12-11T11:08:43;0.00;99.90
26952;DHT22;14507;52.418;13.398;2022-12-11T11:16:37;0.00;99.90
26952;DHT22;14507;52.418;13.398;2022-12-11T11:19:13;0.10;99.90
26952;DHT22;14507;52.418;13.398;2022-12-11T11:21:50;0.10;99.90
26952;DHT22;14507;52.418;13.398;2022-12-11T11:24:51;0.10;99.90
26952;DHT22;14507;52.418;13.398;2022-12-11T11:27:43;0.10;99.90
26952;DHT22;14507;52.418;13.398;2022-12-11T11:30:24;0.20;99.90
26952;DHT22;14507;52.418;13.398;2022-12-11T11:32:53;0.20;99.90
26952;DHT22;14507;52.418;13.398;2022-12-11T11:35:23;0.20;99.90
26952;DHT22;14507;52.418;13.398;2022-12-11T11:38:16;0.30;99.90
26952;DHT22;14507;52.418;13.398;2022-12-11T11:40:50;0.20;99.90
26952;DHT22;14507;52.418;13.398;2022-12-11T11:46:24;0.30;99.90
26952;DHT22;14507;52.418;13.398;2022-12-11T11:51:50;0.30;99.90
26952;DHT22;14507;52.418;13.398;2022-12-11T11:54:34;0.30;99.90
26952;DHT22;14507;52.418;13.398;2022-12-11T11:57:15;0.30;99.90
26952;DHT22;14507;52.418;13.398;2022-12-11T11:59:53;0.30;99.90
26952;DHT22;14507;52.418;13.398;2022-12-11T12:02:20;0.30;99.90
26952;DHT22;14507;52.418;13.398;2022-12-11T12:04:46;0.30;99.90
26952;DHT22;14507;52.418;13.398;2022-12-11T12:07:39;0.30;99.90
26952;DHT22;14507;52.418;13.398;2022-12-11T12:10:19;0.30;99.90
26952;DHT22;14507;52.418;13.398;2022-12-11T12:12:52;0.30;99.90
26952;DHT22;14507;52.418;13.398;2022-12-11T12:15:31;0.30;99.90
26952;DHT22;14507;52.418;13.398;2022-12-11T12:26:43;0.40;99.90
26952;DHT22;14507;52.418;13.398;2022-12-11T12:32:11;0.50;99.90
26952;DHT22;14507;52.418;13.398;2022-12-11T12:40:13;0.40;99.90
26952;DHT22;14507;52.418;13.398;2022-12-11T12:45:21;0.40;99.90
26952;DHT22;14507;52.418;13.398;2022-12-11T12:47:55;0.50;99.90
26952;DHT22;14507;52.418;13.398;2022-12-11T12:50:23;0.40;99.90
26952;DHT22;14507;52.418;13.398;2022-12-11T12:52:51;0.50;99.90
26952;DHT22;14507;52.418;13.398;2022-12-11T12:57:58;0.50;99.90
26952;DHT22;14507;52.418;13.398;2022-12-11T13:02:52;0.50;99.90
26952;DHT22;14507;52.418;13.398;2022-12-11T13:05:24;0.60;99.90
26952;DHT22;14507;52.418;13.398;2022-12-11T13:08:02;0.60;99.90
26952;DHT22;14507;52.418;13.398;2022-12-11T13:10:40;0.50;99.90
26952;DHT22;14507;52.418;13.398;2022-12-11T13:13:29;0.50;99.90
26952;DHT22;14507;52.418;13.398;2022-12-11T13:16:20;0.50;99.90
26952;DHT22;14507;52.418;13.398;2022-12-11T13:18:51;0.50;99.90
26952;DHT22;14507;52.418;13.398;2022-12-11T13:21:33;0.50;99.90
26952;DHT22;14507;52.418;13.398;2022-12-11T13:26:43;0.50;99.90
26952;DHT22;14507;52.418;13.398;2022-12-11T13:29:29;0.40;99.90
26952;DHT22;14507;52.418;13.398;2022-12-11T13:31:58;0.50;99.90
26952;DHT22;14507;52.418;13.398;2022-12-11T13:34:27;0.40;99.90
26952;DHT22;14507;52.418;13.398;2022-12-11T13:36:55;0.40;99.90
26952;DHT22;14507;52.418;13.398;2022-12-11T13:39:26;0.70;99.90
26952;DHT22;14507;52.418;13.398;2022-12-11T13:42:17;0.40;99.90
26952;DHT22;14507;52.418;13.398;2022-12-11T13:44:49;0.40;99.90
26952;DHT22;14507;52.418;13.398;2022-12-11T13:47:17;0.40;99.90
26952;DHT22;14507;52.418;13.398;2022-12-11T13:49:47;0.40;99.90
26952;DHT22;14507;52.418;13.398;2022-12-11T13:52:21;0.30;99.90
26952;DHT22;14507;52.418;13.398;2022-12-11T13:54:51;0.30;99.90
26952;DHT22;14507;52.418;13.398;2022-12-11T13:57:20;0.30;99.90
26952;DHT22;14507;52.418;13.398;2022-12-11T13:59:51;0.30;99.90
26952;DHT22;14507;52.418;13.398;2022-12-11T14:02:22;0.30;99.90
26952;DHT22;14507;52.418;13.398;2022-12-11T14:04:54;0.30;99.90
26952;DHT22;14507;52.418;13.398;2022-12-11T14:07:33;0.30;99.90
26952;DHT22;14507;52.418;13.398;2022-12-11T14:10:04;0.30;99.90
26952;DHT22;14507;52.418;13.398;2022-12-11T14:12:31;0.30;99.90
26952;DHT22;14507;52.418;13.398;2022-12-11T14:14:58;0.30;99.90
26952;DHT22;14507;52.418;13.398;2022-12-11T14:17:29;0.30;99.90
26952;DHT22;14507;52.418;13.398;2022-12-11T14:19:58;0.30;99.90
26952;DHT22;14507;52.418;13.398;2022-12-11T14:22:27;0.20;99.90
26952;DHT22;14507;52.418;13.398;2022-12-11T14:24:58;0.70;99.90
26952;DHT22;14507;52.418;13.398;2022-12-11T14:27:25;0.20;99.90
26952;DHT22;14507;52.418;13.398;2022-12-11T14:29:52;0.10;99.90
26952;DHT22;14507;52.418;13.398;2022-12-11T14:32:34;0.20;99.90
26952;DHT22;14507;52.418;13.398;2022-12-11T14:35:05;0.20;99.90
26952;DHT22;14507;52.418;13.398;2022-12-11T14:37:35;0.20;99.90
26952;DHT22;14507;52.418;13.398;2022-12-11T14:40:07;0.50;99.90
26952;DHT22;14507;52.418;13.398;2022-12-11T14:42:42;0.20;99.90
26952;DHT22;14507;52.418;13.398;2022-12-11T14:45:18;0.20;99.90
26952;DHT22;14507;52.418;13.398;2022-12-11T14:47:44;0.10;99.90
26952;DHT22;14507;52.418;13.398;2022-12-11T14:50:32;0.20;99.90
26952;DHT22;14507;52.418;13.398;2022-12-11T14:53:02;0.30;99.90
26952;DHT22;14507;52.418;13.398;2022-12-11T14:55:31;0.30;99.90
26952;DHT22;14507;52.418;13.398;2022-12-11T14:58:11;0.20;99.90
26952;DHT22;14507;52.418;13.398;2022-12-11T15:00:38;0.20;99.90
26952;DHT22;14507;52.418;13.398;2022-12-11T15:03:38;0.20;99.90
26952;DHT22;14507;52.418;13.398;2022-12-11T15:07:02;0.10;99.90
26952;DHT22;14507;52.418;13.398;2022-12-11T15:11:49;0.10;99.90
26952;DHT22;14507;52.418;13.398;2022-12-11T15:14:17;0.10;99.90
26952;DHT22;14507;52.418;13.398;2022-12-11T15:16:44;0.10;99.90
26952;DHT22;14507;52.418;13.398;2022-12-11T15:19:37;0.10;99.90
26952;DHT22;14507;52.418;13.398;2022-12-11T15:22:06;0.20;99.90
26952;DHT22;14507;52.418;13.398;2022-12-11T15:24:38;0.20;99.90
26952;DHT22;14507;52.418;13.398;2022-12-11T15:27:05;0.10;99.90
26952;DHT22;14507;52.418;13.398;2022-12-11T15:29:34;1.00;99.90
26952;DHT22;14507;52.418;13.398;2022-12-11T15:34:56;0.10;99.90
26952;DHT22;14507;52.418;13.398;2022-12-11T15:37:30;0.00;99.90
26952;DHT22;14507;52.418;13.398;2022-12-11T15:39:58;0.00;99.90
26952;DHT22;14507;52.418;13.398;2022-12-11T15:42:30;0.00;99.90
26952;DHT22;14507;52.418;13.398;2022-12-11T15:44:57;0.00;99.90
26952;DHT22;14507;52.418;13.398;2022-12-11T15:47:28;0.00;99.90
26952;DHT22;14507;52.418;13.398;2022-12-11T15:49:59;0.00;99.90
26952;DHT22;14507;52.418;13.398;2022-12-11T15:52:26;0.00;99.90
26952;DHT22;14507;52.418;13.398;2022-12-11T15:54:51;0.10;99.90
26952;DHT22;14507;52.418;13.398;2022-12-11T15:57:20;0.10;99.90
26952;DHT22;14507;52.418;13.398;2022-12-11T15:59:47;0.00;99.90
26952;DHT22;14507;52.418;13.398;2022-12-11T16:02:14;0.00;99.90
26952;DHT22;14507;52.418;13.398;2022-12-11T16:04:40;0.00;99.90
26952;DHT22;14507;52.418;13.398;2022-12-11T16:07:21;0.00;99.90
26952;DHT22;14507;52.418;13.398;2022-12-11T16:09:48;0.00;99.90
26952;DHT22;14507;52.418;13.398;2022-12-11T16:12:14;0.00;99.90
26952;DHT22;14507;52.418;13.398;2022-12-11T16:14:41;0.20;99.90
26952;DHT22;14507;52.418;13.398;2022-12-11T16:17:07;0.00;99.90
26952;DHT22;14507;52.418;13.398;2022-12-11T16:19:34;0.10;99.90
26952;DHT22;14507;52.418;13.398;2022-12-11T16:21:59;0.10;99.90
26952;DHT22;14507;52.418;13.398;2022-12-11T16:24:26;0.00;99.90
26952;DHT22;14507;52.418;13.398;2022-12-11T16:26:52;0.00;99.90
26952;DHT22;14507;52.418;13.398;2022-12-11T16:29:17;0.00;99.90
26952;DHT22;14507;52.418;13.398;2022-12-11T16:31:43;0.00;99.90
26952;DHT22;14507;52.418;13.398;2022-12-11T16:34:09;0.00;99.90
26952;DHT22;14507;52.418;13.398;2022-12-11T16:36:35;0.00;99.90
26952;DHT22;14507;52.418;13.398;2022-12-11T16:39:01;0.00;99.90
26952;DHT22;14507;52.418;13.398;2022-12-11T16:41:26;0.00;99.90
26952;DHT22;14507;52.418;13.398;2022-12-11T16:43:52;0.10;99.90
26952;DHT22;14507;52.418;13.398;2022-12-11T16:46:20;0.00;99.90
26952;DHT22;14507;52.418;13.398;2022-12-11T16:48:46;0.00;99.90
26952;DHT22;14507;52.418;13.398;2022-12-11T16:51:12;0.00;99.90
26952;DHT22;14507;52.418;13.398;2022-12-11T16:53:38;0.10;99.90
26952;DHT22;14507;52.418;13.398;2022-12-11T16:56:04;0.10;99.90
26952;DHT22;14507;52.418;13.398;2022-12-11T16:58:30;0.10;99.90